createdAt,value
2019-02-18T00:02:50.925Z,958.5
2019-02-18T00:05:56.887Z,958.5
2019-02-18T00:09:02.785Z,958.5
2019-02-18T00:12:08.842Z,958.6
2019-02-18T00:15:14.790Z,958.5
2019-02-18T00:18:20.725Z,958.5
2019-02-18T00:21:26.719Z,958.5
2019-02-18T00:24:32.645Z,958.6
2019-02-18T00:27:38.533Z,958.5
2019-02-18T00:30:44.569Z,958.5
2019-02-18T00:33:50.444Z,958.4
2019-02-18T00:36:56.389Z,958.5
2019-02-18T00:40:02.267Z,958.4
2019-02-18T00:43:08.242Z,958.3
2019-02-18T00:46:14.295Z,958.3
2019-02-18T00:49:20.154Z,958.3
2019-02-18T00:52:26.205Z,958.2
2019-02-18T00:55:32.189Z,958.2
2019-02-18T00:58:38.218Z,958.2
2019-02-18T01:01:46.216Z,958.2
2019-02-18T01:04:52.187Z,958.2
2019-02-18T01:07:58.193Z,958.1
2019-02-18T01:11:04.217Z,958.1
2019-02-18T01:14:10.076Z,958
2019-02-18T01:17:16.100Z,958
2019-02-18T01:20:22.022Z,958
2019-02-18T01:23:28.167Z,957.9
2019-02-18T01:26:34.041Z,958
2019-02-18T01:29:40.113Z,958
2019-02-18T01:32:46.141Z,957.9
2019-02-18T01:35:52.212Z,957.9
2019-02-18T01:38:58.136Z,957.9
2019-02-18T01:42:04.108Z,957.8
2019-02-18T01:45:09.988Z,957.8
2019-02-18T01:48:16.027Z,957.8
2019-02-18T01:51:22.020Z,957.7
2019-02-18T01:54:30.843Z,957.7
2019-02-18T01:57:36.893Z,957.8
2019-02-18T02:00:42.749Z,957.8
2019-02-18T02:03:48.619Z,957.8
2019-02-18T02:06:54.664Z,957.8
2019-02-18T02:10:00.610Z,957.7
2019-02-18T02:13:06.666Z,957.7
2019-02-18T02:16:12.637Z,957.7
2019-02-18T02:19:18.593Z,957.7
2019-02-18T02:22:24.672Z,957.7
2019-02-18T02:25:30.714Z,957.7
2019-02-18T02:28:36.673Z,957.7
2019-02-18T02:31:42.539Z,957.7
2019-02-18T02:34:48.597Z,957.6
2019-02-18T02:37:54.462Z,957.7
2019-02-18T02:41:12.442Z,957.7
2019-02-18T02:44:18.388Z,957.6
2019-02-18T02:47:27.633Z,957.7
2019-02-18T02:50:33.655Z,957.7
2019-02-18T02:53:39.714Z,957.7
2019-02-18T02:56:45.894Z,957.7
2019-02-18T02:59:51.783Z,957.6
2019-02-18T03:02:57.896Z,957.6
2019-02-18T03:06:03.853Z,957.8
2019-02-18T03:09:10.019Z,957.7
2019-02-18T03:12:15.980Z,957.6
2019-02-18T03:15:24.258Z,957.7
2019-02-18T03:18:30.254Z,957.8
2019-02-18T03:21:36.211Z,957.8
2019-02-18T03:24:42.192Z,957.8
2019-02-18T03:27:48.130Z,957.8
2019-02-18T03:30:54.359Z,957.8
2019-02-18T03:34:00.630Z,957.8
2019-02-18T03:37:06.893Z,957.8
2019-02-18T03:40:12.997Z,957.8
2019-02-18T03:43:18.958Z,957.8
2019-02-18T03:46:24.926Z,957.8
2019-02-18T03:49:30.874Z,957.8
2019-02-18T03:52:36.782Z,957.8
2019-02-18T03:55:42.723Z,957.8
2019-02-18T03:58:48.647Z,957.8
2019-02-18T04:01:54.607Z,957.7
2019-02-18T04:05:00.492Z,957.8
2019-02-18T04:08:06.589Z,957.8
2019-02-18T04:11:12.526Z,957.7
2019-02-18T04:14:18.560Z,957.7
2019-02-18T04:17:24.579Z,957.6
2019-02-18T04:20:30.588Z,957.7
2019-02-18T04:23:36.592Z,957.6
2019-02-18T04:26:42.490Z,957.7
2019-02-18T04:29:48.454Z,957.8
2019-02-18T04:32:57.386Z,957.7
2019-02-18T04:36:03.382Z,957.8
2019-02-18T04:39:09.413Z,957.8
2019-02-18T04:42:15.285Z,957.8
2019-02-18T04:45:21.222Z,957.9
2019-02-18T04:48:27.105Z,957.9
2019-02-18T04:51:33.141Z,957.9
2019-02-18T04:54:39.102Z,958
2019-02-18T04:57:45.065Z,957.9
2019-02-18T05:00:51.121Z,958
2019-02-18T05:03:57.037Z,958
2019-02-18T05:07:02.953Z,957.9
2019-02-18T05:10:08.831Z,958
2019-02-18T05:13:14.965Z,958
2019-02-18T05:16:21.033Z,958.1
2019-02-18T05:19:26.916Z,958
2019-02-18T05:22:35.913Z,958.1
2019-02-18T05:25:41.849Z,958.1
2019-02-18T05:28:47.829Z,958
2019-02-18T05:31:53.819Z,958.1
2019-02-18T05:34:59.749Z,958.1
2019-02-18T05:38:05.878Z,958.1
2019-02-18T05:41:11.902Z,958.1
2019-02-18T05:44:17.977Z,958.2
2019-02-18T05:47:23.829Z,958.2
2019-02-18T05:50:29.888Z,958.2
2019-02-18T05:53:35.852Z,958.3
2019-02-18T05:56:41.886Z,958.3
2019-02-18T05:59:47.937Z,958.3
2019-02-18T06:02:53.901Z,958.2
2019-02-18T06:05:59.915Z,958.2
2019-02-18T06:09:05.833Z,958.3
2019-02-18T06:12:15.104Z,958.3
2019-02-18T06:15:21.131Z,958.4
2019-02-18T06:18:27.079Z,958.4
2019-02-18T06:21:33.038Z,958.4
2019-02-18T06:24:39.250Z,958.5
2019-02-18T06:27:45.320Z,958.5
2019-02-18T06:30:56.138Z,958.5
2019-02-18T06:34:02.218Z,958.5
2019-02-18T06:37:08.294Z,958.5
2019-02-18T06:40:14.435Z,958.5
2019-02-18T06:43:22.957Z,958.6
2019-02-18T06:46:29.009Z,958.5
2019-02-18T06:49:34.986Z,958.5
2019-02-18T06:52:40.940Z,958.6
2019-02-18T06:55:46.990Z,958.6
2019-02-18T06:58:52.965Z,958.5
2019-02-18T07:01:58.837Z,958.6
2019-02-18T07:05:04.724Z,958.7
2019-02-18T07:08:10.836Z,958.7
2019-02-18T07:11:17.010Z,958.6
2019-02-18T07:14:22.971Z,958.6
2019-02-18T07:17:28.857Z,958.7
2019-02-18T07:20:34.888Z,958.7
2019-02-18T07:23:40.838Z,958.6
2019-02-18T07:26:46.718Z,958.6
2019-02-18T07:29:52.808Z,958.6
2019-02-18T07:32:58.890Z,958.6
2019-02-18T07:36:04.772Z,958.6
2019-02-18T07:39:10.687Z,958.6
2019-02-18T07:42:16.848Z,958.6
2019-02-18T07:45:23.084Z,958.6
2019-02-18T07:48:29.067Z,958.6
2019-02-18T07:51:35.303Z,958.6
2019-02-18T07:54:41.321Z,958.5
2019-02-18T07:57:47.425Z,958.5
2019-02-18T08:00:53.361Z,958.6
2019-02-18T08:03:59.340Z,958.6
2019-02-18T08:07:05.430Z,958.5
2019-02-18T08:10:13.582Z,958.6
2019-02-18T08:13:19.718Z,958.5
2019-02-18T08:16:25.767Z,958.5
2019-02-18T08:19:31.802Z,958.5
2019-02-18T08:22:37.768Z,958.5
2019-02-18T08:25:43.640Z,958.4
2019-02-18T08:28:49.761Z,958.5
2019-02-18T08:31:56.765Z,958.5
2019-02-18T08:35:02.758Z,958.5
2019-02-18T08:38:08.693Z,958.5
2019-02-18T08:41:14.755Z,958.4
2019-02-18T08:44:20.708Z,958.4
2019-02-18T08:47:26.654Z,958.4
2019-02-18T08:50:32.732Z,958.4
2019-02-18T08:53:38.619Z,958.4
2019-02-18T08:56:49.769Z,958.4
2019-02-18T08:59:55.837Z,958.4
2019-02-18T09:03:01.975Z,958.4
2019-02-18T09:06:08.064Z,958.4
2019-02-18T09:09:14.039Z,958.3
2019-02-18T09:12:20.191Z,958.4
2019-02-18T09:15:26.314Z,958.3
2019-02-18T09:18:32.414Z,958.3
2019-02-18T09:21:38.328Z,958.3
2019-02-18T09:24:44.297Z,958.3
2019-02-18T09:27:50.290Z,958.3
2019-02-18T09:30:56.358Z,958.2
2019-02-18T09:34:02.315Z,958.3
2019-02-18T09:37:10.410Z,958.1
2019-02-18T09:40:16.678Z,958.2
2019-02-18T09:43:23.697Z,958.2
2019-02-18T09:46:29.791Z,958.2
2019-02-18T09:49:35.870Z,958.1
2019-02-18T09:52:41.984Z,958.1
2019-02-18T09:55:48.202Z,958.1
2019-02-18T09:58:54.475Z,958
2019-02-18T10:02:00.355Z,957.9
2019-02-18T10:05:06.368Z,957.9
2019-02-18T10:08:12.524Z,957.9
2019-02-18T10:11:18.469Z,957.8
2019-02-18T10:14:24.413Z,957.8
2019-02-18T10:17:30.584Z,957.7
2019-02-18T10:20:36.537Z,957.7
2019-02-18T10:23:42.648Z,957.6
2019-02-18T10:26:48.552Z,957.6
2019-02-18T10:29:54.651Z,957.6
2019-02-18T10:33:00.562Z,957.5
2019-02-18T10:36:06.542Z,957.5
2019-02-18T10:39:12.808Z,957.4
2019-02-18T10:42:19.788Z,957.4
2019-02-18T10:45:25.868Z,957.3
2019-02-18T10:48:31.914Z,957.3
2019-02-18T10:51:38.977Z,957.3
2019-02-18T10:54:46.531Z,957.1
2019-02-18T10:57:55.012Z,957.1
2019-02-18T11:01:00.945Z,957.1
2019-02-18T11:04:08.475Z,957.1
2019-02-18T11:07:14.500Z,957
2019-02-18T11:10:20.498Z,956.9
2019-02-18T11:13:26.761Z,956.9
2019-02-18T11:16:32.698Z,956.9
2019-02-18T11:19:38.686Z,956.9
2019-02-18T11:22:44.643Z,956.8
2019-02-18T11:25:50.558Z,956.7
2019-02-18T11:28:56.921Z,956.7
2019-02-18T11:32:04.499Z,956.8
2019-02-18T11:35:10.638Z,956.7
2019-02-18T11:38:16.898Z,956.7
2019-02-18T11:41:28.859Z,956.6
2019-02-18T11:44:36.961Z,956.6
2019-02-18T11:47:43.393Z,956.5
2019-02-18T11:50:49.268Z,956.5
2019-02-18T11:53:55.385Z,956.4
2019-02-18T11:57:01.486Z,956.4
2019-02-18T12:00:07.684Z,956.4
2019-02-18T12:03:14.378Z,956.2
2019-02-18T12:06:22.586Z,956.2
2019-02-18T12:09:28.758Z,956.2
2019-02-18T12:12:35.224Z,956.1
2019-02-18T12:15:42.930Z,956.1
2019-02-18T12:18:49.188Z,956
2019-02-18T12:21:55.439Z,956.1
2019-02-18T12:25:01.584Z,956
2019-02-18T12:28:07.775Z,956
2019-02-18T12:31:14.002Z,955.9
2019-02-18T12:34:21.562Z,955.9
2019-02-18T12:37:31.598Z,955.8
2019-02-18T12:40:38.322Z,955.8
2019-02-18T12:43:44.282Z,955.8
2019-02-18T12:46:50.499Z,955.8
2019-02-18T12:49:56.886Z,955.7
2019-02-18T12:53:03.199Z,955.7
2019-02-18T12:56:09.780Z,955.7
2019-02-18T12:59:20.138Z,955.6
2019-02-18T13:02:27.613Z,955.6
2019-02-18T13:05:34.349Z,955.6
2019-02-18T13:08:45.126Z,955.6
2019-02-18T13:12:00.296Z,955.6
2019-02-18T13:15:06.669Z,955.6
2019-02-18T13:18:13.982Z,955.5
2019-02-18T13:21:21.465Z,955.6
2019-02-18T13:24:27.614Z,955.6
2019-02-18T13:27:34.292Z,955.5
2019-02-18T13:30:42.405Z,955.5
2019-02-18T13:33:48.492Z,955.4
2019-02-18T13:36:54.401Z,955.4
2019-02-18T13:40:00.453Z,955.4
2019-02-18T13:43:06.474Z,955.3
2019-02-18T13:46:12.874Z,955.4
2019-02-18T13:49:19.025Z,955.3
2019-02-18T13:52:25.072Z,955.3
2019-02-18T13:55:33.122Z,955.3
2019-02-18T13:58:39.749Z,955.3
2019-02-18T14:01:46.634Z,955.3
2019-02-18T14:04:52.817Z,955.3
2019-02-18T14:07:59.467Z,955.3
2019-02-18T14:11:13.354Z,955.2
2019-02-18T14:14:21.351Z,955.2
2019-02-18T14:17:27.420Z,955.2
2019-02-18T14:20:33.338Z,955.1
2019-02-18T14:23:39.457Z,955.1
2019-02-18T14:26:45.476Z,955.1
2019-02-18T14:29:51.535Z,955.2
2019-02-18T14:32:57.785Z,955.2
2019-02-18T14:36:04.464Z,955.2
2019-02-18T14:39:10.672Z,955.1
2019-02-18T14:42:24.936Z,955.1
2019-02-18T14:45:31.042Z,955.1
2019-02-18T14:48:37.122Z,955.1
2019-02-18T14:51:43.268Z,955.1
2019-02-18T14:54:49.179Z,955.1
2019-02-18T14:57:56.671Z,955.2
2019-02-18T15:01:02.786Z,955.2
2019-02-18T15:04:09.782Z,955.1
2019-02-18T15:07:16.146Z,955.1
2019-02-18T15:10:22.161Z,955.1
2019-02-18T15:13:28.272Z,955.1
2019-02-18T15:16:37.841Z,955.1
2019-02-18T15:19:45.516Z,955.1
2019-02-18T15:22:52.806Z,955.1
2019-02-18T15:25:58.943Z,955.1
2019-02-18T15:29:05.082Z,955
2019-02-18T15:32:11.142Z,955.1
2019-02-18T15:35:17.219Z,955.1
2019-02-18T15:38:23.268Z,955.1
2019-02-18T15:41:29.357Z,955.1
2019-02-18T15:44:35.450Z,955.1
2019-02-18T15:47:42.534Z,955.2
2019-02-18T15:50:49.691Z,955.1
2019-02-18T15:53:55.699Z,955.2
2019-02-18T15:57:01.946Z,955.2
2019-02-18T16:00:08.008Z,955.1
2019-02-18T16:03:14.184Z,955.2
2019-02-18T16:06:20.623Z,955.2
2019-02-18T16:09:26.599Z,955.2
2019-02-18T16:12:34.277Z,955.2
2019-02-18T16:15:40.246Z,955.2
2019-02-18T16:18:46.633Z,955.2
2019-02-18T16:21:53.000Z,955.2
2019-02-18T16:24:59.065Z,955.2
2019-02-18T16:28:05.319Z,955.2
2019-02-18T16:31:11.391Z,955.3
2019-02-18T16:34:17.453Z,955.3
2019-02-18T16:37:23.619Z,955.3
2019-02-18T16:40:29.683Z,955.3
2019-02-18T16:43:35.740Z,955.4
2019-02-18T16:46:42.420Z,955.4
2019-02-18T16:49:50.176Z,955.4
2019-02-18T16:52:56.143Z,955.4
2019-02-18T16:56:02.243Z,955.4
2019-02-18T16:59:08.312Z,955.5
2019-02-18T17:02:14.574Z,955.5
2019-02-18T17:05:22.170Z,955.5
2019-02-18T17:08:28.337Z,955.5
2019-02-18T17:11:34.400Z,955.6
2019-02-18T17:14:41.935Z,955.5
2019-02-18T17:17:48.010Z,955.6
2019-02-18T17:20:53.947Z,955.6
2019-02-18T17:23:59.926Z,955.7
2019-02-18T17:27:05.990Z,955.7
2019-02-18T17:30:12.010Z,955.7
2019-02-18T17:33:18.378Z,955.7
2019-02-18T17:36:25.971Z,955.7
2019-02-18T17:39:32.087Z,955.7
2019-02-18T17:42:38.045Z,955.8
2019-02-18T17:45:46.820Z,955.7
2019-02-18T17:48:53.060Z,955.8
2019-02-18T17:51:59.098Z,955.8
2019-02-18T17:55:05.164Z,955.8
2019-02-18T17:58:11.941Z,955.8
2019-02-18T18:01:18.062Z,955.8
2019-02-18T18:04:24.514Z,955.8
2019-02-18T18:07:31.461Z,955.8
2019-02-18T18:10:40.284Z,955.8
2019-02-18T18:13:46.245Z,955.8
2019-02-18T18:16:52.238Z,955.9
2019-02-18T18:19:58.177Z,955.9
2019-02-18T18:23:04.227Z,955.9
2019-02-18T18:26:10.439Z,955.9
2019-02-18T18:29:18.038Z,955.9
2019-02-18T18:32:24.152Z,955.9
2019-02-18T18:35:30.122Z,955.9
2019-02-18T18:38:36.122Z,955.9
2019-02-18T18:41:42.135Z,955.9
2019-02-18T18:44:48.030Z,956
2019-02-18T18:47:54.226Z,956
2019-02-18T18:51:04.230Z,956
2019-02-18T18:54:10.300Z,956
2019-02-18T18:57:16.243Z,956
2019-02-18T19:00:22.197Z,956.1
2019-02-18T19:03:28.259Z,956.1
2019-02-18T19:06:36.062Z,956.1
2019-02-18T19:09:42.686Z,956.2
2019-02-18T19:12:50.039Z,956.2
2019-02-18T19:15:55.994Z,956.2
2019-02-18T19:19:03.552Z,956.1
2019-02-18T19:22:09.559Z,956.2
2019-02-18T19:25:15.562Z,956.2
2019-02-18T19:28:21.572Z,956.2
2019-02-18T19:31:28.300Z,956.2
2019-02-18T19:34:35.132Z,956.2
2019-02-18T19:37:41.019Z,956.2
2019-02-18T19:40:46.927Z,956.3
2019-02-18T19:43:53.017Z,956.2
2019-02-18T19:46:58.970Z,956.3
2019-02-18T19:50:05.032Z,956.2
2019-02-18T19:53:10.916Z,956.2
2019-02-18T19:56:18.697Z,956.3
2019-02-18T19:59:24.654Z,956.3
2019-02-18T20:02:30.683Z,956.3
2019-02-18T20:05:36.885Z,956.2
2019-02-18T20:08:42.764Z,956.2
2019-02-18T20:11:48.801Z,956.2
2019-02-18T20:14:54.764Z,956.2
2019-02-18T20:18:02.775Z,956.2
2019-02-18T20:21:08.832Z,956.1
2019-02-18T20:24:14.719Z,956.2
2019-02-18T20:27:20.854Z,956.2
2019-02-18T20:30:26.829Z,956.2
2019-02-18T20:33:34.622Z,956.2
2019-02-18T20:36:40.581Z,956.2
2019-02-18T20:39:49.462Z,956.2
2019-02-18T20:42:55.576Z,956.2
2019-02-18T20:46:01.477Z,956.2
2019-02-18T20:49:07.491Z,956.2
2019-02-18T20:52:13.499Z,956.2
2019-02-18T20:55:19.446Z,956.2
2019-02-18T20:58:25.424Z,956.2
2019-02-18T21:01:31.850Z,956.2
2019-02-18T21:04:37.830Z,956.2
2019-02-18T21:07:44.433Z,956.2
2019-02-18T21:10:51.048Z,956.2
2019-02-18T21:13:57.010Z,956.3
2019-02-18T21:17:03.072Z,956.2
2019-02-18T21:20:08.947Z,956.3
2019-02-18T21:23:15.101Z,956.2
2019-02-18T21:26:21.062Z,956.3
2019-02-18T21:29:27.072Z,956.3
2019-02-18T21:32:35.038Z,956.3
2019-02-18T21:35:42.841Z,956.2
2019-02-18T21:38:51.534Z,956.3
2019-02-18T21:41:57.525Z,956.3
2019-02-18T21:45:03.487Z,956.2
2019-02-18T21:48:10.310Z,956.3
2019-02-18T21:51:16.980Z,956.3
2019-02-18T21:54:24.207Z,956.3
2019-02-18T21:57:30.237Z,956.3
2019-02-18T22:00:36.244Z,956.4
2019-02-18T22:03:42.231Z,956.4
2019-02-18T22:06:48.270Z,956.4
2019-02-18T22:09:54.167Z,956.4
2019-02-18T22:13:00.195Z,956.3
2019-02-18T22:16:06.174Z,956.4
2019-02-18T22:19:12.137Z,956.4
2019-02-18T22:22:18.123Z,956.4
2019-02-18T22:25:25.514Z,956.4
2019-02-18T22:28:31.528Z,956.5
2019-02-18T22:31:38.360Z,956.5
2019-02-18T22:34:45.494Z,956.4
2019-02-18T22:37:51.609Z,956.4
2019-02-18T22:40:57.477Z,956.4
2019-02-18T22:44:03.475Z,956.4
2019-02-18T22:47:09.353Z,956.4
2019-02-18T22:50:15.289Z,956.4
2019-02-18T22:53:21.250Z,956.5
2019-02-18T22:56:27.211Z,956.5
2019-02-18T22:59:33.126Z,956.6
2019-02-18T23:02:39.269Z,956.5
2019-02-18T23:05:46.059Z,956.6
2019-02-18T23:08:51.932Z,956.5
2019-02-18T23:11:58.597Z,956.5
2019-02-18T23:15:05.942Z,956.5
2019-02-18T23:18:11.900Z,956.6
2019-02-18T23:21:17.843Z,956.5
2019-02-18T23:24:26.569Z,956.6
2019-02-18T23:27:32.647Z,956.6
2019-02-18T23:30:38.655Z,956.6
2019-02-18T23:33:44.667Z,956.5
2019-02-18T23:36:50.665Z,956.5
2019-02-18T23:39:56.645Z,956.5
2019-02-18T23:43:02.696Z,956.5
2019-02-18T23:46:08.534Z,956.5
2019-02-18T23:49:14.622Z,956.5
2019-02-18T23:52:20.538Z,956.4
2019-02-18T23:55:26.467Z,956.4
2019-02-18T23:58:32.411Z,956.4
